No data was retrieved for https://query.yahooapis.com/v1/public/yql?q=select+%2A+from+weather.forecast+where+woeid%3D731260&format=xml&u=c



METAR rapporten vliegvelden

   
EHAM - Amsterdam
Gewijzigd: 28-05-2020 05:55
Helder  
Helder  
   Wind: ONO 18.5 km/h
Wind: ONO 18.5 km/h
Temperatuur: 12°C
Dauwpunt: 7°C
Vochtigheid: 72%
Barometer: 1035 hPa
Zicht: meer dan 10 km
Bewolking: Helder
EHAM 280355Z 06010KT 020V090 CAVOK 12/07 Q1035 NOSIG
EHBK - Maastricht
Gewijzigd: 28-05-2020 05:55
Helder  
Helder  
   Wind: NO 16.7 km/h
Wind: NO 16.7 km/h
Temperatuur: 9°C
Voelt als: 7°C
Dauwpunt: 5°C
Vochtigheid: 76%
Barometer: 1033 hPa
Bewolking: Helder
Zicht: meer dan 10 km
Bewolking: Helder
EHBK 280355Z AUTO 04009KT 9999 NCD 09/05 Q1033
ELLX - Luxemburg
Gewijzigd: 28-05-2020 05:50
Helder  
Helder  
   Wind: NNO 24.1 km/h
Wind: NNO 24.1 km/h
Temperatuur: 13°C
Dauwpunt: 8°C
Vochtigheid: 72%
Barometer: 1030 hPa
Zicht: meer dan 10 km
Bewolking: Helder
ELLX 280350Z 03013KT CAVOK 13/08 Q1030 NOSIG
EDDL - Dusseldorf
Gewijzigd: 28-05-2020 06:20
Helder  
Helder  
   Wind: Noorden 9.3 km/h
Wind: Noorden 9.3 km/h
Temperatuur: 10°C
Voelt als: 9°C
Dauwpunt: 7°C
Vochtigheid: 82%
Barometer: 1034 hPa
Zicht: meer dan 10 km
Bewolking: Helder
EDDL 280420Z 01005KT CAVOK 10/07 Q1034 NOSIG
  

Script ontwikkeld door  Saratoga-weather.org Aangepast voor de template door  Weerstation Leuven